Nearby METAR Reports

 

KCMA - Camarillo, California, USA
Distance from station: WSW 4mi, 7km
Updated: Thu, 24-May-2018 2:11pm PDT
Overcast
Overcast
 Wind from SW
Wind: SW 10 mph , 17 km/h
Temperature: 63°F , 17°C
Dew Point: 54°F , 12°C
Humidity: 73%
Barometer: 30.09 inHg , 1019 hPa
Clouds: Overcast
Visibility: 10 miles , 16 km
Cloud details: Mostly cloudy 1500 ft
Mostly cloudy 2400 ft
Overcast 4200 ft
2018/05/24 21:11 KCMA 242111Z 23009KT 10SM BKN015 BKN024 OVC042 17/12 A3009 RMK AO2 T01670117
KNTD - Point Mugu Nas, California, USA
Distance from station: SSW 9mi, 15km
Updated: Thu, 24-May-2018 1:58pm PDT
Overcast
Overcast
 Wind from WSW
Wind: WSW 10 mph , 17 km/h
Temperature: 63°F , 17°C
Dew Point: 54°F , 12°C
Humidity: 73%
Barometer: 30.11 inHg , 1019.6 hPa
Clouds: Overcast
Visibility: 10 miles , 16 km
Cloud details: Few Clouds 800 ft
Partly cloudy 1500 ft
Overcast 3500 ft
2018/05/24 20:58 KNTD 242058Z 25009KT 10SM FEW008 SCT015 OVC035 17/12 A3011 RMK AO2 SLP196 T01670122 53003 VISNO N $
 
KOXR - Oxnard, California, USA
Distance from station: WSW 10mi, 16km
Updated: Thu, 24-May-2018 1:51pm PDT
Overcast
Overcast
 Wind from WSW
Wind: WSW 12 mph , 19 km/h
Temperature: 63°F , 17°C
Dew Point: 55°F , 13°C
Humidity: 77%
Barometer: 30.10 inHg , 1019.3 hPa
Clouds: Overcast
Visibility: 10 miles , 16 km
Cloud details: Few Clouds 1300 ft
Mostly cloudy 2700 ft
Overcast 4000 ft
2018/05/24 20:51 KOXR 242051Z 24010KT 10SM FEW013 BKN027 OVC040 17/13 A3010 RMK AO2 SLP191 T01670128 53002
KVNY - Van Nuys, California, USA
Distance from station: E 31mi, 50km
Updated: Thu, 24-May-2018 1:51pm PDT
Overcast
Overcast
 Wind from varies
Wind: varies 7 mph , 11 km/h
Temperature: 64°F , 18°C
Dew Point: 54°F , 12°C
Humidity: 68%
Barometer: 30.07 inHg , 1018.3 hPa
Clouds: Overcast
Visibility: 10 miles , 16 km
Cloud details: Overcast 2400 ft
2018/05/24 20:51 KVNY 242051Z VRB06KT 10SM OVC024 18/12 A3007 RMK AO2 SLP176 T01830117 58005
 
KWHP - La / Whiteman, California, USA
Distance from station: E 35mi, 56km
Updated: Thu, 24-May-2018 1:50pm PDT

 
2018/05/24 20:50 KWHP 242050Z KT 10SM OVC015 16/12 A3010
KSMO - Santa Monica, California, USA
Distance from station: ESE 36mi, 58km
Updated: Thu, 24-May-2018 1:51pm PDT
Overcast
Overcast
 Wind from SW
Wind: SW 10 mph , 17 km/h
Temperature: 64°F , 18°C
Dew Point: 54°F , 12°C
Humidity: 68%
Barometer: 30.08 inHg , 1018.6 hPa
Clouds: Overcast
Visibility: 10 miles , 16 km
Cloud details: Few Clouds 2000 ft
Overcast 3700 ft
2018/05/24 20:51 KSMO 242051Z 23009KT 10SM FEW020 OVC037 18/12 A3008 RMK AO2 SLP185 T01780117 58006
 
KBUR - Burbank, California, USA
Distance from station: E 38mi, 61km
Updated: Thu, 24-May-2018 1:53pm PDT
Overcast
Overcast
 Wind from S
Wind: S 5 mph , 7 km/h
Temperature: 63°F , 17°C
Dew Point: 55°F , 13°C
Humidity: 77%
Barometer: 30.06 inHg , 1017.9 hPa
Clouds: Overcast
Visibility: 10 miles , 16 km
Cloud details: Overcast 1700 ft
2018/05/24 20:53 KBUR 242053Z 17004KT 10SM OVC017 17/13 A3006 RMK AO2 SLP171 T01670133 58006
KSDB - Sandberg, California, USA
Distance from station: NNE 40mi, 64km
Updated: Thu, 24-May-2018 1:53pm PDT
Clear
Clear
 Wind from SSW
Wind: SSW 18 mph , 30 km/h, Gust: 25 mph , 41 km/h
Temperature: 61°F , 16°C
Dew Point: 45°F , 7°C
Humidity: 55%
Barometer: 30.10 inHg , 1019.3 hPa
Clouds: Clear
Visibility: 10 miles , 16 km
2018/05/24 20:53 KSDB 242053Z AUTO 21016G22KT 10SM CLR 16/07 A3010 RMK AO2 SLP159 T01610067 58001
 
KLAX - Los Angeles, California, USA
Distance from station: ESE 42mi, 68km
Updated: Thu, 24-May-2018 1:53pm PDT
Overcast
Overcast
 Wind from WSW
Wind: WSW 10 mph , 17 km/h, Gust: 17 mph , 28 km/h
Temperature: 64°F , 18°C
Dew Point: 54°F , 12°C
Humidity: 68%
Barometer: 30.08 inHg , 1018.6 hPa
Clouds: Overcast
Visibility: 10 miles , 16 km
Cloud details: Mostly cloudy 2500 ft
Overcast 3700 ft
2018/05/24 20:53 KLAX 242053Z 25009G15KT 10SM BKN025 OVC037 18/12 A3008 RMK AO2 SLP186 T01830117 58004
KCQT - Los Angeles, California, USA
Distance from station: ESE 45mi, 73km
Updated: Thu, 24-May-2018 1:47pm PDT
Overcast
Overcast
 Wind from calm
Wind: Calm
Temperature: 66°F , 19°C
Dew Point: 55°F , 13°C
Humidity: 68%
Barometer: 30.06 inHg , 1017.9 hPa
Clouds: Overcast
Visibility: 10 miles , 16 km
Cloud details: Mostly cloudy 2300 ft
Overcast 3600 ft
2018/05/24 20:47 KCQT 242047Z AUTO 00000KT 10SM BKN023 OVC036 19/13 A3006 RMK AO2 SLP178 T01940133 58008
 
KHHR - Hawthorne, California, USA
Distance from station: ESE 45mi, 73km
Updated: Thu, 24-May-2018 1:53pm PDT
Overcast
Overcast
 Wind from W
Wind: W 7 mph , 11 km/h
Temperature: 64°F , 18°C
Dew Point: 54°F , 12°C
Humidity: 68%
Barometer: 30.08 inHg , 1018.6 hPa
Clouds: Overcast
Visibility: 10 miles , 16 km
Cloud details: Mostly cloudy 2500 ft
Overcast 3500 ft
2018/05/24 20:53 KHHR 242053Z 28006KT 10SM BKN025 OVC035 18/12 A3008 RMK AO2 SLP186 T01780122 58006
KSBA - Santa Barbara, California, USA
Distance from station: WNW 49mi, 79km
Updated: Thu, 24-May-2018 1:53pm PDT
Overcast
Overcast
 Wind from W
Wind: W 6 mph , 9 km/h
Temperature: 61°F , 16°C
Dew Point: 52°F , 11°C
Humidity: 72%
Barometer: 30.10 inHg , 1019.3 hPa
Clouds: Overcast
Visibility: 10 miles , 16 km
Cloud details: Overcast 1600 ft
2018/05/24 20:53 KSBA 242053Z 26005KT 10SM OVC016 16/11 A3010 RMK AO2 SLP194 T01610111 53007